createdAt,value
2023-05-14T00:00:04.942Z,77.12
2023-05-14T00:03:08.835Z,77.25
2023-05-14T00:06:11.381Z,76.63
2023-05-14T00:09:13.902Z,76.72
2023-05-14T00:12:16.225Z,76.42
2023-05-14T00:15:18.497Z,76.50
2023-05-14T00:18:20.871Z,76.60
2023-05-14T00:21:23.607Z,76.80
2023-05-14T00:24:25.880Z,76.92
2023-05-14T00:27:28.242Z,77.34
2023-05-14T00:30:30.553Z,77.02
2023-05-14T00:33:33.155Z,76.98
2023-05-14T00:36:35.638Z,76.87
2023-05-14T00:39:38.031Z,77.28
2023-05-14T00:42:41.010Z,77.36
2023-05-14T00:45:43.381Z,77.27
2023-05-14T00:48:45.701Z,77.55
2023-05-14T00:51:48.079Z,77.54
2023-05-14T00:54:50.747Z,77.27
2023-05-14T00:57:53.538Z,78.09
2023-05-14T01:00:55.922Z,77.72
2023-05-14T01:03:58.385Z,77.83
2023-05-14T01:07:16.916Z,77.17
2023-05-14T01:10:29.036Z,77.70
2023-05-14T01:13:37.630Z,77.75
2023-05-14T01:16:40.112Z,77.81
2023-05-14T01:19:45.649Z,77.41
2023-05-14T01:22:48.046Z,77.59
2023-05-14T01:25:50.358Z,77.60
2023-05-14T01:28:53.277Z,77.58
2023-05-14T01:31:55.847Z,77.68
2023-05-14T01:34:58.651Z,78.05
2023-05-14T01:38:01.909Z,77.86
2023-05-14T01:41:04.306Z,77.50
2023-05-14T01:44:06.736Z,77.45
2023-05-14T01:47:09.048Z,78.14
2023-05-14T01:50:11.395Z,77.85
2023-05-14T01:53:13.718Z,78.26
2023-05-14T01:56:16.031Z,77.54
2023-05-14T01:59:18.470Z,77.92
2023-05-14T02:02:20.828Z,78.50
2023-05-14T02:05:23.178Z,78.25
2023-05-14T02:08:25.691Z,78.20
2023-05-14T02:11:28.035Z,78.42
2023-05-14T02:14:30.368Z,77.93
2023-05-14T02:17:32.747Z,78.08
2023-05-14T02:20:35.093Z,77.93
2023-05-14T02:23:41.696Z,78.71
2023-05-14T02:26:44.530Z,78.19
2023-05-14T02:29:47.418Z,78.20
2023-05-14T02:32:49.897Z,77.92
2023-05-14T02:35:52.386Z,77.41
2023-05-14T02:38:54.678Z,77.34
2023-05-14T02:41:57.576Z,77.72
2023-05-14T02:44:59.979Z,77.41
2023-05-14T02:48:02.407Z,77.49
2023-05-14T02:51:05.891Z,77.20
2023-05-14T02:54:08.271Z,77.59
2023-05-14T02:57:10.687Z,77.53
2023-05-14T03:00:13.383Z,77.32
2023-05-14T03:03:16.159Z,77.91
2023-05-14T03:06:18.702Z,77.66
2023-05-14T03:09:21.111Z,77.68
2023-05-14T03:12:23.436Z,77.79
2023-05-14T03:15:25.893Z,77.77
2023-05-14T03:18:30.653Z,78.35
2023-05-14T03:21:33.099Z,78.56
2023-05-14T03:24:35.588Z,78.28
2023-05-14T03:27:38.332Z,78.16
2023-05-14T03:30:40.693Z,78.42
2023-05-14T03:33:43.025Z,78.60
2023-05-14T03:36:45.371Z,78.79
2023-05-14T03:39:47.732Z,78.88
2023-05-14T03:42:50.115Z,78.84
2023-05-14T03:45:52.843Z,78.57
2023-05-14T03:48:55.469Z,78.73
2023-05-14T03:51:59.469Z,78.66
2023-05-14T03:55:01.860Z,78.67
2023-05-14T03:58:07.437Z,78.83
2023-05-14T04:01:09.788Z,78.83
2023-05-14T04:04:12.327Z,78.70
2023-05-14T04:07:14.677Z,79.23
2023-05-14T04:10:17.088Z,78.96
2023-05-14T04:13:19.433Z,79.08
2023-05-14T04:16:21.775Z,78.99
2023-05-14T04:19:24.105Z,79.15
2023-05-14T04:22:26.396Z,78.45
2023-05-14T04:25:28.765Z,78.64
2023-05-14T04:28:31.128Z,78.36
2023-05-14T04:31:33.565Z,78.78
2023-05-14T04:34:35.892Z,79.10
2023-05-14T04:37:38.321Z,78.59
2023-05-14T04:40:41.548Z,78.92
2023-05-14T04:43:43.832Z,78.91
2023-05-14T04:46:46.129Z,78.50
2023-05-14T04:49:48.505Z,79.19
2023-05-14T04:52:51.119Z,79.08
2023-05-14T04:55:54.187Z,79.20
2023-05-14T04:58:56.486Z,79.44
2023-05-14T05:01:58.791Z,79.53
2023-05-14T05:05:01.312Z,79.57
2023-05-14T05:08:03.724Z,80.35
2023-05-14T05:11:06.105Z,80.19
2023-05-14T05:14:08.384Z,80.94
2023-05-14T05:17:10.805Z,80.93
2023-05-14T05:20:13.432Z,80.89
2023-05-14T05:23:15.832Z,80.54
2023-05-14T05:26:18.132Z,80.88
2023-05-14T05:29:20.436Z,81.17
2023-05-14T05:32:22.850Z,80.29
2023-05-14T05:35:25.186Z,80.51
2023-05-14T05:38:27.513Z,80.18
2023-05-14T05:41:30.353Z,80.04
2023-05-14T05:44:32.660Z,80.31
2023-05-14T05:47:35.050Z,80.15
2023-05-14T05:50:37.429Z,80.46
2023-05-14T05:53:39.754Z,80.65
2023-05-14T05:56:42.153Z,80.18
2023-05-14T05:59:44.470Z,80.89
2023-05-14T06:02:46.885Z,80.54
2023-05-14T06:05:49.296Z,79.37
2023-05-14T06:08:51.713Z,79.89
2023-05-14T06:11:54.052Z,79.71
2023-05-14T06:14:57.890Z,79.32
2023-05-14T06:18:00.365Z,77.96
2023-05-14T06:21:02.991Z,78.61
2023-05-14T06:24:05.608Z,78.75
2023-05-14T06:27:07.939Z,78.46
2023-05-14T06:30:11.392Z,77.93
2023-05-14T06:33:15.061Z,77.68
2023-05-14T06:36:17.364Z,78.69
2023-05-14T06:39:19.679Z,77.85
2023-05-14T06:42:21.958Z,78.03
2023-05-14T06:45:24.351Z,78.40
2023-05-14T06:48:27.920Z,79.16
2023-05-14T06:51:30.784Z,78.62
2023-05-14T06:54:33.101Z,77.97
2023-05-14T06:57:35.404Z,78.85
2023-05-14T07:00:37.753Z,78.58
2023-05-14T07:03:40.125Z,77.58
2023-05-14T07:06:42.444Z,78.34
2023-05-14T07:09:44.768Z,78.42
2023-05-14T07:12:47.095Z,79.15
2023-05-14T07:15:49.481Z,78.56
2023-05-14T07:18:51.903Z,78.53
2023-05-14T07:21:54.404Z,79.23
2023-05-14T07:24:56.747Z,77.96
2023-05-14T07:27:59.081Z,78.75
2023-05-14T07:31:01.495Z,77.35
2023-05-14T07:34:03.882Z,78.19
2023-05-14T07:37:06.182Z,78.58
2023-05-14T07:40:09.253Z,78.18
2023-05-14T07:43:11.588Z,78.33
2023-05-14T07:46:14.376Z,78.30
2023-05-14T07:49:16.674Z,79.45
2023-05-14T07:52:19.030Z,78.93
2023-05-14T07:55:21.443Z,79.81
2023-05-14T07:58:25.108Z,79.69
2023-05-14T08:01:27.717Z,79.79
2023-05-14T08:04:30.093Z,80.18
2023-05-14T08:07:33.718Z,79.88
2023-05-14T08:10:36.110Z,80.76
2023-05-14T08:13:38.490Z,80.28
2023-05-14T08:16:40.907Z,80.13
2023-05-14T08:19:43.345Z,80.70
2023-05-14T08:22:45.703Z,80.86
2023-05-14T08:25:47.989Z,80.49
2023-05-14T08:28:50.514Z,80.56
2023-05-14T08:31:52.844Z,80.71
2023-05-14T08:34:55.175Z,80.55
2023-05-14T08:37:57.530Z,81.47
2023-05-14T08:40:59.911Z,81.09
2023-05-14T08:44:21.380Z,81.35
2023-05-14T08:47:23.927Z,81.18
2023-05-14T08:50:26.563Z,81.56
2023-05-14T08:53:29.093Z,81.13
2023-05-14T08:56:32.614Z,80.29
2023-05-14T08:59:34.951Z,80.81
2023-05-14T09:02:37.486Z,80.68
2023-05-14T09:05:39.831Z,80.97
2023-05-14T09:08:42.317Z,80.16
2023-05-14T09:11:47.472Z,80.54
2023-05-14T09:14:50.130Z,81.19
2023-05-14T09:17:53.222Z,81.35
2023-05-14T09:20:55.892Z,81.70
2023-05-14T09:23:59.385Z,81.90
2023-05-14T09:27:01.903Z,82.21
2023-05-14T09:30:11.797Z,82.49
2023-05-14T09:33:15.053Z,82.44
2023-05-14T09:36:17.426Z,82.18
2023-05-14T09:39:19.756Z,82.17
2023-05-14T09:42:22.076Z,81.85
2023-05-14T09:45:24.420Z,81.10
2023-05-14T09:48:26.792Z,81.73
2023-05-14T09:51:31.549Z,81.55
2023-05-14T09:54:33.857Z,82.14
2023-05-14T09:57:36.757Z,81.61
2023-05-14T10:00:39.142Z,81.98
2023-05-14T10:03:41.435Z,81.37
2023-05-14T10:06:43.742Z,81.51
2023-05-14T10:09:46.040Z,81.61
2023-05-14T10:13:14.830Z,81.77
2023-05-14T10:16:21.241Z,82.07
2023-05-14T10:19:24.336Z,81.59
2023-05-14T10:22:29.544Z,81.31
2023-05-14T10:25:31.874Z,81.49
2023-05-14T10:28:34.351Z,82.08
2023-05-14T10:31:54.183Z,81.93
2023-05-14T10:34:56.730Z,81.54
2023-05-14T10:37:59.324Z,82.30
2023-05-14T10:41:03.131Z,82.32
2023-05-14T10:44:08.532Z,81.82
2023-05-14T10:47:10.843Z,82.10
2023-05-14T10:50:15.097Z,83.04
2023-05-14T10:53:17.440Z,82.71
2023-05-14T10:56:19.785Z,82.19
2023-05-14T10:59:27.463Z,82.44
2023-05-14T11:02:31.901Z,82.54
2023-05-14T11:05:37.249Z,81.91
2023-05-14T11:08:39.815Z,81.73
2023-05-14T11:11:42.136Z,82.29
2023-05-14T11:14:44.460Z,82.60
2023-05-14T11:17:47.592Z,82.71
2023-05-14T11:20:49.965Z,81.98
2023-05-14T11:23:52.307Z,82.63
2023-05-14T11:26:55.808Z,82.64
2023-05-14T11:29:58.255Z,82.98
2023-05-14T11:33:02.093Z,82.90
2023-05-14T11:36:05.065Z,83.05
2023-05-14T11:39:08.018Z,83.16
2023-05-14T11:42:12.403Z,82.86
2023-05-14T11:45:25.123Z,81.21
2023-05-14T11:48:27.434Z,81.60
2023-05-14T11:51:29.755Z,82.41
2023-05-14T11:54:32.721Z,82.64
2023-05-14T11:57:35.061Z,82.87
2023-05-14T12:00:38.935Z,82.50
2023-05-14T12:03:41.852Z,82.42
2023-05-14T12:06:44.256Z,82.52
2023-05-14T12:09:50.831Z,83.00
2023-05-14T12:12:53.184Z,82.77
2023-05-14T12:16:00.405Z,82.88
2023-05-14T12:19:02.933Z,83.16
2023-05-14T12:22:05.482Z,83.09
2023-05-14T12:25:12.527Z,83.13
2023-05-14T12:28:15.942Z,83.14
2023-05-14T12:31:18.300Z,82.83
2023-05-14T12:34:20.789Z,82.86
2023-05-14T12:37:23.131Z,81.73
2023-05-14T12:40:25.818Z,82.11
2023-05-14T12:43:31.605Z,82.50
2023-05-14T12:46:34.410Z,82.18
2023-05-14T12:49:36.824Z,82.09
2023-05-14T12:52:39.919Z,82.69
2023-05-14T12:55:42.467Z,82.77
2023-05-14T12:58:46.729Z,82.49
2023-05-14T13:01:49.065Z,82.15
2023-05-14T13:04:51.414Z,82.35
2023-05-14T13:07:53.930Z,82.77
2023-05-14T13:10:56.379Z,82.29
2023-05-14T13:13:59.342Z,82.88
2023-05-14T13:17:01.742Z,81.78
2023-05-14T13:20:04.848Z,82.30
2023-05-14T13:23:07.267Z,82.70
2023-05-14T13:26:09.931Z,82.62
2023-05-14T13:29:12.521Z,82.17
2023-05-14T13:32:14.840Z,82.72
2023-05-14T13:35:17.169Z,83.07
2023-05-14T13:38:19.447Z,82.75
2023-05-14T13:41:22.372Z,82.80
2023-05-14T13:44:24.736Z,82.24
2023-05-14T13:47:27.139Z,82.64
2023-05-14T13:50:29.492Z,82.22
2023-05-14T13:53:31.827Z,82.33
2023-05-14T13:56:34.121Z,82.07
2023-05-14T13:59:36.446Z,81.91
2023-05-14T14:02:38.785Z,81.84
2023-05-14T14:05:41.207Z,81.43
2023-05-14T14:08:43.513Z,81.60
2023-05-14T14:11:45.877Z,81.23
2023-05-14T14:14:48.142Z,81.97
2023-05-14T14:17:50.599Z,81.74
2023-05-14T14:20:52.921Z,81.76
2023-05-14T14:23:55.231Z,81.78
2023-05-14T14:26:57.595Z,81.84
2023-05-14T14:29:59.928Z,81.58
2023-05-14T14:33:02.382Z,81.75
2023-05-14T14:36:05.503Z,81.67
2023-05-14T14:39:07.839Z,81.74
2023-05-14T14:42:10.445Z,82.24
2023-05-14T14:45:12.861Z,82.83
2023-05-14T14:48:26.480Z,82.50
2023-05-14T14:51:30.333Z,83.54
2023-05-14T14:54:32.715Z,83.29
2023-05-14T14:57:35.054Z,83.72
2023-05-14T15:00:37.856Z,83.93
2023-05-14T15:03:40.812Z,83.69
2023-05-14T15:06:43.154Z,83.24
2023-05-14T15:09:45.434Z,83.79
2023-05-14T15:12:48.126Z,82.71
2023-05-14T15:15:50.725Z,83.12
2023-05-14T15:18:53.092Z,82.48
2023-05-14T15:21:55.597Z,82.63
2023-05-14T15:24:57.888Z,82.57
2023-05-14T15:28:00.227Z,82.39
2023-05-14T15:31:02.692Z,82.40
2023-05-14T15:34:05.104Z,82.09
2023-05-14T15:37:07.501Z,82.52
2023-05-14T15:40:13.428Z,81.96
2023-05-14T15:43:15.794Z,81.99
2023-05-14T15:46:18.087Z,82.50
2023-05-14T15:49:20.533Z,81.95
2023-05-14T15:52:22.966Z,82.66
2023-05-14T15:55:25.413Z,82.21
2023-05-14T15:58:27.697Z,81.99
2023-05-14T16:01:29.991Z,82.54
2023-05-14T16:04:32.296Z,82.32
2023-05-14T16:07:34.647Z,82.48
2023-05-14T16:10:36.977Z,82.09
2023-05-14T16:13:41.610Z,82.39
2023-05-14T16:16:44.030Z,82.39
2023-05-14T16:19:46.388Z,82.54
2023-05-14T16:22:48.720Z,82.24
2023-05-14T16:25:51.008Z,82.48
2023-05-14T16:28:53.322Z,82.16
2023-05-14T16:31:55.697Z,82.52
2023-05-14T16:34:58.341Z,82.47
2023-05-14T16:38:00.713Z,82.37
2023-05-14T16:41:03.179Z,82.24
2023-05-14T16:44:05.513Z,82.44
2023-05-14T16:47:07.862Z,82.45
2023-05-14T16:50:10.447Z,82.39
2023-05-14T16:53:12.734Z,82.26
2023-05-14T16:56:15.044Z,82.67
2023-05-14T16:59:17.429Z,83.06
2023-05-14T17:02:19.740Z,82.62
2023-05-14T17:05:22.214Z,82.04
2023-05-14T17:08:24.640Z,82.56
2023-05-14T17:11:26.928Z,82.28
2023-05-14T17:14:29.342Z,82.82
2023-05-14T17:17:32.679Z,82.60
2023-05-14T17:20:35.084Z,82.93
2023-05-14T17:23:37.736Z,82.62
2023-05-14T17:26:40.101Z,82.73
2023-05-14T17:29:42.830Z,82.27
2023-05-14T17:32:45.268Z,82.26
2023-05-14T17:35:48.166Z,82.58
2023-05-14T17:38:50.594Z,82.82
2023-05-14T17:41:52.945Z,82.69
2023-05-14T17:44:55.253Z,83.40
2023-05-14T17:47:57.623Z,82.89
2023-05-14T17:51:00.040Z,82.90
2023-05-14T17:54:02.330Z,82.75
2023-05-14T17:57:04.777Z,82.74
2023-05-14T18:00:09.552Z,82.22
2023-05-14T18:03:15.176Z,82.76
2023-05-14T18:06:17.566Z,82.97
2023-05-14T18:09:19.894Z,83.06
2023-05-14T18:12:22.270Z,83.06
2023-05-14T18:15:25.854Z,82.21
2023-05-14T18:18:28.377Z,82.81
2023-05-14T18:21:30.918Z,82.77
2023-05-14T18:24:33.244Z,82.29
2023-05-14T18:27:37.510Z,82.42
2023-05-14T18:30:39.843Z,82.57
2023-05-14T18:33:42.163Z,82.55
2023-05-14T18:36:44.544Z,82.04
2023-05-14T18:39:46.863Z,82.72
2023-05-14T18:42:49.210Z,82.83
2023-05-14T18:45:51.577Z,82.56
2023-05-14T18:48:53.901Z,83.09
2023-05-14T18:51:56.203Z,83.29
2023-05-14T18:54:58.493Z,83.92
2023-05-14T18:58:01.335Z,83.37
2023-05-14T19:01:03.714Z,83.10
2023-05-14T19:04:06.395Z,83.35
2023-05-14T19:07:08.836Z,82.59
2023-05-14T19:10:11.221Z,82.67
2023-05-14T19:13:13.558Z,82.87
2023-05-14T19:16:16.254Z,82.45
2023-05-14T19:19:18.699Z,82.86
2023-05-14T19:22:21.022Z,83.00
2023-05-14T19:25:23.357Z,82.59
2023-05-14T19:28:25.660Z,83.33
2023-05-14T19:31:28.180Z,83.67
2023-05-14T19:34:31.008Z,83.60
2023-05-14T19:37:33.338Z,83.65
2023-05-14T19:40:35.762Z,83.93
2023-05-14T19:43:38.084Z,84.25
2023-05-14T19:46:40.670Z,83.69
2023-05-14T19:49:43.035Z,83.90
2023-05-14T19:52:45.351Z,83.99
2023-05-14T19:55:47.692Z,83.32
2023-05-14T19:58:50.033Z,84.23
2023-05-14T20:01:54.540Z,84.80
2023-05-14T20:04:58.047Z,85.07
2023-05-14T20:08:00.388Z,84.82
2023-05-14T20:11:03.344Z,84.21
2023-05-14T20:14:05.843Z,84.82
2023-05-14T20:17:08.274Z,85.05
2023-05-14T20:20:12.068Z,84.82
2023-05-14T20:23:14.406Z,84.42
2023-05-14T20:26:16.754Z,84.40
2023-05-14T20:29:19.079Z,84.65
2023-05-14T20:32:25.533Z,84.88
2023-05-14T20:35:27.949Z,85.13
2023-05-14T20:38:31.348Z,85.51
2023-05-14T20:41:33.639Z,85.23
2023-05-14T20:44:35.931Z,84.88
2023-05-14T20:47:38.377Z,84.68
2023-05-14T20:50:40.822Z,84.49
2023-05-14T20:53:43.150Z,84.14
2023-05-14T20:56:45.674Z,84.57
2023-05-14T20:59:49.051Z,84.90
2023-05-14T21:02:51.586Z,84.84
2023-05-14T21:05:56.011Z,84.85
2023-05-14T21:08:58.325Z,85.10
2023-05-14T21:12:00.695Z,85.21
2023-05-14T21:15:03.246Z,84.86
2023-05-14T21:18:05.697Z,85.20
2023-05-14T21:21:08.029Z,85.87
2023-05-14T21:24:10.343Z,85.72
2023-05-14T21:27:12.722Z,85.27
2023-05-14T21:30:15.418Z,84.57
2023-05-14T21:33:17.808Z,85.09
2023-05-14T21:36:21.195Z,85.27
2023-05-14T21:39:23.523Z,85.16
2023-05-14T21:42:25.918Z,85.38
2023-05-14T21:45:28.606Z,84.98
2023-05-14T21:48:31.298Z,84.76
2023-05-14T21:51:33.761Z,84.34
2023-05-14T21:54:36.059Z,85.32
2023-05-14T21:57:38.345Z,85.34
2023-05-14T22:00:41.256Z,85.84
2023-05-14T22:03:43.659Z,85.85
2023-05-14T22:06:46.092Z,85.38
2023-05-14T22:09:49.349Z,85.54
2023-05-14T22:12:52.441Z,84.73
2023-05-14T22:16:01.451Z,85.58
2023-05-14T22:19:16.515Z,85.15
2023-05-14T22:22:18.975Z,84.88
2023-05-14T22:25:21.291Z,84.99
2023-05-14T22:28:23.785Z,85.01
2023-05-14T22:31:26.126Z,85.23
2023-05-14T22:34:28.491Z,85.00
2023-05-14T22:37:30.840Z,85.39
2023-05-14T22:40:33.152Z,86.15
2023-05-14T22:43:35.485Z,86.06
2023-05-14T22:46:37.841Z,86.49
2023-05-14T22:49:40.714Z,85.67
2023-05-14T22:52:43.077Z,85.55
2023-05-14T22:55:45.660Z,85.70
2023-05-14T22:58:48.083Z,86.15
2023-05-14T23:01:50.509Z,85.68
2023-05-14T23:04:52.981Z,85.22
2023-05-14T23:07:55.567Z,85.56
2023-05-14T23:10:57.871Z,85.39
2023-05-14T23:14:00.841Z,84.81
2023-05-14T23:17:03.257Z,85.31
2023-05-14T23:20:06.122Z,85.01
2023-05-14T23:23:08.476Z,85.18
2023-05-14T23:26:10.852Z,85.42
2023-05-14T23:29:13.171Z,85.69
2023-05-14T23:32:15.552Z,86.34
2023-05-14T23:35:17.938Z,86.25
2023-05-14T23:38:20.280Z,86.00
2023-05-14T23:41:22.640Z,85.18
2023-05-14T23:44:25.029Z,85.04
2023-05-14T23:47:27.413Z,85.28
2023-05-14T23:50:29.752Z,85.51
2023-05-14T23:53:32.122Z,85.31
2023-05-14T23:56:34.480Z,86.13
2023-05-14T23:59:36.920Z,85.34
